Date,TemperatureHighF,TemperatureAvgF,TemperatureLowF,DewpointHighF,DewpointAvgF,DewpointLowF,HumidityHigh,HumidityAvg,HumidityLow,PressureMaxIn,PressureMinIn,WindSpeedMaxMPH,WindSpeedAvgMPH,GustSpeedMaxMPH,PrecipitationSumIn
2013-2-1,60.0,57.0,53.2,42.6,37.3,32.2,58,48,41,30.09,29.92,5,0,11,0.00
2013-2-2,62.2,58.0,53.4,50.2,45.8,40.7,70,64,58,29.92,29.77,0,0,3,0.00
2013-2-3,65.1,61.8,59.3,54.4,53.0,49.5,79,73,65,29.93,29.79,5,0,9,0.00
2013-2-4,65.1,62.1,59.7,56.3,53.5,51.6,79,73,65,29.99,29.92,3,0,4,0.00
2013-2-5,63.6,61.3,58.6,53.2,50.3,46.4,75,67,59,30.00,29.85,7,0,114,0.00
2013-2-6,63.1,59.4,55.7,51.8,47.9,44.5,70,66,63,29.85,29.67,1,0,3,0.00
2013-2-7,63.1,58.9,56.3,51.6,48.7,46.2,77,69,63,29.72,29.51,6,0,12,0.51
2013-2-8,58.4,56.2,53.7,48.6,44.6,42.6,74,65,59,29.76,29.54,0,0,2,0.00
2013-2-9,59.5,55.5,50.7,44.8,42.0,39.7,68,61,53,29.88,29.76,0,0,3,0.00
2013-2-10,60.0,56.4,52.8,43.4,40.8,39.0,63,56,49,29.89,29.80,0,0,2,0.00
2013-2-11,57.9,55.0,51.8,39.8,37.7,35.5,61,52,45,30.07,29.78,6,0,7,0.00
2013-2-12,60.6,55.9,50.3,46.6,40.8,34.5,64,57,49,30.08,30.01,0,0,4,0.00
2013-2-13,57.9,56.2,53.4,48.8,46.5,43.8,77,70,61,30.01,29.90,4,0,6,1.14
2013-2-14,56.3,54.1,52.8,48.8,46.8,45.5,78,76,73,29.92,29.69,5,0,8,0.35
2013-2-15,55.2,53.5,51.6,47.0,45.5,44.3,79,74,70,30.05,29.69,8,0,14,0.18
2013-2-16,59.1,54.9,52.3,47.7,44.9,43.2,73,69,62,30.08,30.01,6,0,7,0.06
2013-2-17,53.2,51.1,49.6,45.5,43.2,40.9,77,74,72,30.09,29.97,11,1,15,0.35
2013-2-18,56.4,52.2,47.8,43.0,41.1,39.2,73,66,58,30.11,30.06,9,0,11,0.00
2013-2-19,56.8,54.2,51.9,49.6,45.5,40.5,80,73,65,30.07,29.78,0,0,3,0.20
2013-2-20,60.4,55.9,51.6,46.1,42.1,39.9,73,60,48,30.07,29.83,6,0,6,0.00
2013-2-21,57.3,55.5,53.7,48.2,43.6,-99.9,74,65,61,30.07,29.72,5,0,114,0.02
2013-2-22,58.4,55.9,54.1,51.2,49.3,47.7,84,79,73,29.75,29.58,6,0,13,3.04
2013-2-23,66.3,57.8,51.6,54.6,49.5,46.6,84,74,60,30.05,29.75,1,0,2,0.00
2013-2-24,67.8,60.1,53.7,56.8,50.8,46.9,82,72,58,30.11,30.02,2,0,4,0.00
2013-2-25,72.1,65.7,57.7,55.7,53.0,51.3,81,64,51,30.08,29.98,4,0,114,0.00
2013-2-26,70.8,63.1,57.9,56.4,50.0,43.2,79,63,44,30.05,29.97,1,0,6,0.00
2013-2-27,66.0,58.6,55.0,47.6,42.7,39.3,66,56,41,30.07,29.95,4,0,11,0.00
2013-2-28,59.7,53.9,51.0,43.6,40.8,38.5,67,61,53,30.23,30.07,15,1,16,0.00